Exning, United Kingdom
Current Conditions -  °F | °C
As of 7:58 PM on Sunday 23 Nov 2014 (Local Time) from EGUN Reporting Station
Few Clouds Few Clouds  
Wind Chill:   Ceiling: Unl
Heat Index:   Visibility: 6mi
Dew Point:   Wind: 6mph
Humidity: 97%   Direction: 280°W
Pressure: 30.08"   Gusts: NA
Location:  52.27°N, 0.37°E
Report Text: EGUN 231958Z AUTO 28005KT 9999 FEW022 07/06 A3008 RMK AO2 SLP190 T00660062
Loading
Personal Weather Stations






























Interactive Weather Map New forecast layout! Learn more

10-Day Weather Forecast

Advertisements
Track Severe Weather on mobile